createdAt,value
2019-05-13T00:00:38.696Z,5.33
2019-05-13T00:05:44.550Z,5.32
2019-05-13T00:10:48.626Z,5.43
2019-05-13T00:15:54.380Z,5.53
2019-05-13T00:20:58.641Z,5.68
2019-05-13T00:26:03.790Z,5.68
2019-05-13T00:31:15.095Z,5.84
2019-05-13T00:36:19.264Z,5.73
2019-05-13T00:41:24.481Z,5.60
2019-05-13T00:46:28.626Z,5.42
2019-05-13T00:51:33.690Z,5.30
2019-05-13T00:56:37.978Z,5.52
2019-05-13T01:01:44.084Z,5.67
2019-05-13T01:06:48.124Z,5.85
2019-05-13T01:11:53.741Z,5.77
2019-05-13T01:16:57.926Z,5.65
2019-05-13T01:22:03.373Z,5.73
2019-05-13T01:27:07.480Z,5.68
2019-05-13T01:32:11.489Z,5.73
2019-05-13T01:37:15.492Z,5.42
2019-05-13T01:42:19.821Z,5.14
2019-05-13T01:47:24.183Z,4.89
2019-05-13T01:52:28.290Z,4.94
2019-05-13T01:57:34.234Z,4.90
2019-05-13T02:02:38.043Z,5.19
2019-05-13T02:07:54.534Z,4.85
2019-05-13T02:12:47.804Z,4.58
2019-05-13T02:17:53.734Z,4.30
2019-05-13T02:22:57.492Z,4.17
2019-05-13T02:28:08.834Z,4.10
2019-05-13T02:33:07.502Z,3.98
2019-05-13T02:38:23.626Z,3.84
2019-05-13T02:43:17.232Z,3.79
2019-05-13T02:48:23.315Z,4.09
2019-05-13T02:53:27.163Z,4.26
2019-05-13T02:58:33.252Z,4.16
2019-05-13T03:03:36.905Z,4.09
2019-05-13T03:08:49.345Z,3.97
2019-05-13T03:13:47.419Z,3.88
2019-05-13T03:18:52.410Z,3.65
2019-05-13T03:23:56.981Z,3.63
2019-05-13T03:29:02.900Z,3.73
2019-05-13T03:34:07.642Z,3.77
2019-05-13T03:39:16.110Z,3.78
2019-05-13T03:44:23.691Z,3.77
2019-05-13T03:49:28.615Z,3.79
2019-05-13T03:54:33.066Z,3.87
2019-05-13T03:59:37.885Z,4.03
2019-05-13T04:04:42.471Z,4.13
2019-05-13T04:09:46.997Z,4.18
2019-05-13T04:14:52.840Z,4.33
2019-05-13T04:19:56.894Z,4.54
2019-05-13T04:25:02.435Z,4.76
2019-05-13T04:30:08.163Z,4.96
2019-05-13T04:35:12.599Z,6.63
2019-05-13T04:40:16.731Z,12.80
2019-05-13T04:45:24.079Z,15.71
2019-05-13T04:50:27.079Z,17.08
2019-05-13T04:55:34.479Z,19.07
2019-05-13T05:01:08.658Z,19.85
2019-05-13T05:06:54.558Z,19.17
2019-05-13T05:12:38.318Z,19.96
2019-05-13T05:17:58.713Z,19.70
2019-05-13T05:23:39.420Z,18.84
2019-05-13T05:29:22.772Z,19.26
2019-05-13T05:35:14.144Z,19.48
2019-05-13T05:40:30.936Z,20.96
2019-05-13T05:45:26.838Z,20.68
2019-05-13T05:50:32.693Z,22.20
2019-05-13T05:55:41.089Z,23.29
2019-05-13T06:00:47.684Z,22.16
2019-05-13T06:05:52.107Z,22.16
2019-05-13T06:10:57.517Z,20.26
2019-05-13T06:16:02.647Z,20.68
2019-05-13T06:21:14.839Z,22.58
2019-05-13T06:26:23.644Z,22.21
2019-05-13T06:31:32.431Z,23.01
2019-05-13T06:36:37.392Z,21.03
2019-05-13T06:41:41.869Z,22.58
2019-05-13T06:46:46.026Z,22.66
2019-05-13T06:51:52.440Z,24.09
2019-05-13T06:56:55.961Z,23.28
2019-05-13T07:02:02.120Z,23.62
2019-05-13T07:07:16.089Z,24.42
2019-05-13T07:12:17.877Z,24.08
2019-05-13T07:17:22.418Z,25.23
2019-05-13T07:22:27.178Z,25.67
2019-05-13T07:27:31.890Z,25.61
2019-05-13T07:32:36.068Z,25.71
2019-05-13T07:37:42.211Z,22.59
2019-05-13T07:42:46.642Z,21.38
2019-05-13T07:47:52.020Z,23.41
2019-05-13T07:52:57.060Z,23.26
2019-05-13T07:58:02.289Z,22.29
2019-05-13T08:03:09.349Z,21.68
2019-05-13T08:08:13.586Z,21.96
2019-05-13T08:13:17.721Z,23.37
2019-05-13T08:18:23.466Z,20.35
2019-05-13T08:23:27.753Z,22.24
2019-05-13T08:28:32.510Z,21.23
2019-05-13T08:33:36.795Z,22.09
2019-05-13T08:38:43.211Z,20.01
2019-05-13T08:43:46.689Z,20.24
2019-05-13T08:48:51.804Z,22.30
2019-05-13T08:53:55.999Z,22.40
2019-05-13T08:59:01.193Z,21.97
2019-05-13T09:04:05.721Z,20.24
2019-05-13T09:09:11.547Z,19.72
2019-05-13T09:14:16.633Z,19.09
2019-05-13T09:19:21.621Z,18.40
2019-05-13T09:24:33.358Z,20.72
2019-05-13T09:29:32.358Z,22.01
2019-05-13T09:34:41.971Z,20.64
2019-05-13T09:39:45.358Z,17.32
2019-05-13T09:44:52.595Z,17.80
2019-05-13T09:49:56.522Z,20.15
2019-05-13T09:55:03.130Z,19.85
2019-05-13T10:00:06.454Z,22.72
2019-05-13T10:05:11.630Z,20.54
2019-05-13T10:10:16.619Z,18.12
2019-05-13T10:15:22.162Z,17.37
2019-05-13T10:20:42.324Z,16.04
2019-05-13T10:25:48.030Z,20.17
2019-05-13T10:30:53.113Z,20.39
2019-05-13T10:35:58.458Z,19.65
2019-05-13T10:41:03.419Z,19.89
2019-05-13T10:46:07.908Z,17.09
2019-05-13T10:51:13.067Z,18.33
2019-05-13T10:56:17.640Z,18.81
2019-05-13T11:01:22.582Z,16.06
2019-05-13T11:06:26.914Z,15.79
2019-05-13T11:11:32.998Z,15.50
2019-05-13T11:16:37.474Z,15.17
2019-05-13T11:21:44.126Z,15.22
2019-05-13T11:26:47.251Z,15.91
2019-05-13T11:31:52.439Z,16.68
2019-05-13T11:36:57.067Z,17.31
2019-05-13T11:47:07.260Z,16.56
2019-05-13T11:52:12.057Z,18.07
2019-05-13T11:57:16.948Z,18.67
2019-05-13T12:02:23.117Z,17.90
2019-05-13T12:07:26.853Z,17.48
2019-05-13T12:12:34.436Z,16.45
2019-05-13T12:17:36.925Z,17.42
2019-05-13T12:22:42.587Z,18.25
2019-05-13T12:27:46.782Z,18.47
2019-05-13T12:32:51.865Z,16.48
2019-05-13T12:37:56.234Z,15.88
2019-05-13T12:43:02.060Z,18.23
2019-05-13T12:48:06.201Z,19.04
2019-05-13T12:53:12.855Z,19.48
2019-05-13T12:58:16.112Z,18.76
2019-05-13T13:03:23.218Z,19.13
2019-05-13T13:08:40.023Z,17.81
2019-05-13T13:13:54.105Z,17.40
2019-05-13T13:18:38.096Z,17.00
2019-05-13T13:23:42.908Z,16.91
2019-05-13T13:28:47.024Z,16.94
2019-05-13T13:33:55.275Z,16.38
2019-05-13T13:38:56.840Z,16.12
2019-05-13T13:44:05.603Z,17.31
2019-05-13T13:49:06.660Z,18.32
2019-05-13T13:54:10.878Z,18.89
2019-05-13T13:59:14.931Z,18.35
2019-05-13T14:04:18.992Z,17.34
2019-05-13T14:06:29.231Z,17.00
2019-05-13T14:09:23.123Z,16.45
2019-05-13T14:14:27.179Z,16.50
2019-05-13T14:19:32.327Z,16.53
2019-05-13T14:24:36.564Z,15.89
2019-05-13T14:29:47.967Z,16.07
2019-05-13T14:34:46.665Z,17.95
2019-05-13T14:39:50.780Z,19.27
2019-05-13T14:44:55.082Z,18.91
2019-05-13T14:50:01.709Z,18.53
2019-05-13T14:55:05.482Z,17.29
2019-05-13T15:00:10.900Z,17.22
2019-05-13T15:05:15.159Z,17.16
2019-05-13T15:10:21.794Z,18.32
2019-05-13T15:15:25.368Z,19.78
2019-05-13T15:20:29.521Z,19.71
2019-05-13T15:25:33.549Z,20.13
2019-05-13T15:30:37.673Z,18.41
2019-05-13T15:35:42.253Z,17.76
2019-05-13T15:40:46.773Z,18.07
2019-05-13T15:45:51.435Z,17.44
2019-05-13T15:50:55.504Z,18.36
2019-05-13T15:56:00.270Z,18.42
2019-05-13T16:01:05.546Z,17.21
2019-05-13T16:06:09.624Z,17.61
2019-05-13T16:11:14.161Z,17.34
2019-05-13T16:16:18.419Z,17.97
2019-05-13T16:21:22.555Z,18.56
2019-05-13T16:26:27.514Z,18.22
2019-05-13T16:31:31.956Z,18.00
2019-05-13T16:36:36.153Z,18.34
2019-05-13T16:41:42.589Z,17.86
2019-05-13T16:46:46.237Z,17.69
2019-05-13T16:51:51.731Z,16.75
2019-05-13T16:56:56.065Z,16.44
2019-05-13T17:02:01.791Z,16.73
2019-05-13T17:07:06.235Z,16.44
2019-05-13T17:12:13.890Z,15.77
2019-05-13T17:17:16.114Z,16.69
2019-05-13T17:22:20.169Z,16.96
2019-05-13T17:27:24.460Z,16.32
2019-05-13T17:32:28.538Z,15.98
2019-05-13T17:37:32.657Z,16.21
2019-05-13T17:42:36.702Z,16.82
2019-05-13T17:47:41.800Z,16.63
2019-05-13T17:52:46.073Z,16.25
2019-05-13T17:57:50.225Z,15.60
2019-05-13T18:02:54.380Z,15.19
2019-05-13T18:07:58.562Z,14.87
2019-05-13T18:13:02.690Z,14.75
2019-05-13T18:18:06.961Z,14.61
2019-05-13T18:23:12.134Z,14.44
2019-05-13T18:28:27.688Z,14.44
2019-05-13T18:33:22.182Z,14.42
2019-05-13T18:38:26.196Z,13.82
2019-05-13T18:43:32.077Z,13.55
2019-05-13T18:48:36.430Z,13.25
2019-05-13T18:53:41.479Z,12.91
2019-05-13T18:58:45.658Z,12.64
2019-05-13T19:03:55.301Z,12.48
2019-05-13T19:08:59.506Z,12.21
2019-05-13T19:14:03.528Z,11.93
2019-05-13T19:19:13.325Z,11.76
2019-05-13T19:24:14.113Z,11.64
2019-05-13T19:29:18.708Z,11.24
2019-05-13T19:34:23.502Z,10.99
2019-05-13T19:39:31.086Z,10.90
2019-05-13T19:44:35.141Z,10.84
2019-05-13T19:49:46.705Z,10.70
2019-05-13T19:54:52.172Z,10.34
2019-05-13T19:59:56.675Z,10.19
2019-05-13T20:05:05.812Z,10.19
2019-05-13T20:10:13.972Z,10.14
2019-05-13T20:15:22.144Z,9.85
2019-05-13T20:20:31.821Z,9.62
2019-05-13T20:25:41.776Z,9.60
2019-05-13T20:30:51.165Z,9.53
2019-05-13T20:35:58.081Z,9.41
2019-05-13T20:41:02.497Z,9.34
2019-05-13T20:46:06.571Z,9.27
2019-05-13T20:51:11.375Z,9.16
2019-05-13T20:56:15.537Z,8.74
2019-05-13T21:01:21.112Z,8.28
2019-05-13T21:06:25.147Z,7.92
2019-05-13T21:11:31.024Z,7.69
2019-05-13T21:16:35.112Z,7.50
2019-05-13T21:21:39.121Z,7.32
2019-05-13T21:26:43.156Z,7.15
2019-05-13T21:31:47.177Z,6.99
2019-05-13T21:36:51.871Z,6.75
2019-05-13T21:41:56.088Z,6.58
2019-05-13T21:47:01.987Z,6.36
2019-05-13T21:52:05.823Z,6.18
2019-05-13T21:57:11.468Z,6.07
2019-05-13T22:02:15.801Z,5.90
2019-05-13T22:07:22.195Z,5.68
2019-05-13T22:12:26.230Z,5.50
2019-05-13T22:17:31.685Z,5.38
2019-05-13T22:22:35.759Z,5.36
2019-05-13T22:27:41.320Z,5.31
2019-05-13T22:32:45.407Z,5.35
2019-05-13T22:37:51.189Z,5.27
2019-05-13T22:42:56.700Z,5.70
2019-05-13T22:48:02.655Z,6.10
2019-05-13T22:53:06.858Z,6.36
2019-05-13T22:58:10.982Z,6.64
2019-05-13T23:03:15.741Z,6.61
2019-05-13T23:08:21.702Z,6.54
2019-05-13T23:13:25.975Z,6.57
2019-05-13T23:18:31.678Z,6.64
2019-05-13T23:23:35.872Z,6.56
2019-05-13T23:28:41.595Z,6.35
2019-05-13T23:33:46.031Z,6.24
2019-05-13T23:38:51.741Z,6.04
2019-05-13T23:43:55.894Z,5.75
2019-05-13T23:59:55.224Z,5.74
